Time;durP1;ratioP1;P1;durP2;ratioP2;P2;SDS_P1;SDS_P2;PMS_P1;PMS_P2;Temp;Humidity;BMP_temperature;BMP_pressure;BME280_temperature;BME280_humidity;BME280_pressure;Samples;Min_cycle;Max_cycle;Signal;HPM_P1;HPM_P2
2023/06/13 00:01:36;;;;;;;;;;;;;;;16.99;100.00;99235.06;5094560;28;1890;-63
2023/06/13 00:04:03;;;;;;;;;;;;;;;16.98;100.00;99241.09;5094332;28;945;-63
2023/06/13 00:06:30;;;;;;;;;;;;;;;16.98;100.00;99243.88;5094210;28;888;-63
2023/06/13 00:08:57;;;;;;;;;;;;;;;16.99;100.00;99234.28;5094071;28;846;-63
2023/06/13 00:11:22;;;;;;;;;;;;;;;16.98;100.00;99236.28;5094125;28;873;-62
2023/06/13 00:13:49;;;;;;;;;;;;;;;16.98;100.00;99235.50;5094128;28;810;-62
2023/06/13 00:16:15;;;;;;;;;;;;;;;16.96;100.00;99229.59;5093932;28;845;-62
2023/06/13 00:18:43;;;;;;;;;;;;;;;16.90;100.00;99221.84;5093763;28;803;-63
2023/06/13 00:21:09;;;;;;;;;;;;;;;16.85;100.00;99216.84;5094323;28;1011;-61
2023/06/13 00:23:37;;;;;;;;;;;;;;;16.75;100.00;99220.84;5093656;28;1905;-61
2023/06/13 00:26:03;;;;;;;;;;;;;;;16.68;100.00;99221.09;5094000;28;810;-63
2023/06/13 00:28:30;;;;;;;;;;;;;;;16.67;100.00;99219.56;5093600;28;802;-62
2023/06/13 00:30:57;;;;;;;;;;;;;;;16.63;100.00;99216.13;5093832;28;810;-61
2023/06/13 00:33:31;;;;;;;;;;;;;;;16.61;100.00;99210.22;5093283;28;1278;-63
2023/06/13 00:35:57;;;;;;;;;;;;;;;16.54;100.00;99212.06;5093458;28;930;-61
2023/06/13 00:38:24;;;;;;;;;;;;;;;16.50;100.00;99219.00;5093365;28;886;-62
2023/06/13 00:40:51;;;;;;;;;;;;;;;16.47;100.00;99222.69;5093253;28;856;-62
2023/06/13 00:43:18;;;;;;;;;;;;;;;16.45;100.00;99230.75;5093459;28;1914;-61
2023/06/13 00:45:44;;;;;;;;;;;;;;;16.43;100.00;99230.41;5093235;28;802;-62
2023/06/13 00:48:11;;;;;;;;;;;;;;;16.41;100.00;99227.31;5093080;28;807;-62
2023/06/13 00:50:44;;;;;;;;;;;;;;;16.37;100.00;99221.88;5093039;28;826;-62
2023/06/13 00:53:18;;;;;;;;;;;;;;;16.36;100.00;99216.75;5093029;28;905;-63
2023/06/13 00:55:46;;;;;;;;;;;;;;;16.31;100.00;99209.75;5092814;28;873;-61
2023/06/13 00:58:12;;;;;;;;;;;;;;;16.26;100.00;99225.06;5092962;28;855;-61
2023/06/13 01:00:39;;;;;;;;;;;;;;;16.24;100.00;99221.19;5092884;28;807;-63
2023/06/13 01:03:14;;;;;;;;;;;;;;;16.24;100.00;99232.34;5074521;28;1886;-63
2023/06/13 01:05:42;;;;;;;;;;;;;;;16.25;100.00;99239.47;5092806;28;806;-61
2023/06/13 01:08:10;;;;;;;;;;;;;;;16.28;100.00;99246.91;5092944;28;837;-63
2023/06/13 01:10:40;;;;;;;;;;;;;;;16.30;100.00;99248.03;5092823;28;818;-63
2023/06/13 01:13:16;;;;;;;;;;;;;;;16.32;100.00;99239.19;5092970;28;892;-63
2023/06/13 01:15:59;;;;;;;;;;;;;;;16.37;100.00;99255.34;5092555;28;851;-63
2023/06/13 01:18:30;;;;;;;;;;;;;;;16.38;100.00;99251.31;5092545;28;862;-64
2023/06/13 01:20:57;;;;;;;;;;;;;;;16.36;100.00;99253.00;5092533;28;1166;-63
2023/06/13 01:23:25;;;;;;;;;;;;;;;16.32;100.00;99250.34;5092529;28;1885;-63
2023/06/13 01:26:10;;;;;;;;;;;;;;;16.26;100.00;99258.53;5092376;28;822;-62
2023/06/13 01:28:36;;;;;;;;;;;;;;;16.21;100.00;99247.94;5092483;28;901;-62
2023/06/13 01:31:06;;;;;;;;;;;;;;;16.18;100.00;99245.31;5092610;28;898;-62
2023/06/13 01:33:34;;;;;;;;;;;;;;;16.14;100.00;99245.44;5092125;28;1504;-62
2023/06/13 01:36:01;;;;;;;;;;;;;;;16.12;100.00;99245.13;5092430;28;873;-61
2023/06/13 01:38:28;;;;;;;;;;;;;;;16.07;100.00;99248.50;5092249;28;853;-62
2023/06/13 01:40:55;;;;;;;;;;;;;;;16.00;100.00;99246.75;5092397;28;834;-62
2023/06/13 01:43:23;;;;;;;;;;;;;;;15.98;100.00;99242.84;5092143;28;1910;-66
2023/06/13 01:45:54;;;;;;;;;;;;;;;15.95;100.00;99252.13;5092434;28;891;-63
2023/06/13 01:48:44;;;;;;;;;;;;;;;15.93;100.00;99253.31;5092257;28;849;-62
2023/06/13 01:51:17;;;;;;;;;;;;;;;15.93;100.00;99255.34;5084227;28;1643;-63
2023/06/13 01:53:52;;;;;;;;;;;;;;;15.92;100.00;99256.59;5091838;28;866;-63
2023/06/13 01:56:22;;;;;;;;;;;;;;;15.90;100.00;99242.31;5091861;28;913;-61
2023/06/13 01:58:54;;;;;;;;;;;;;;;15.82;100.00;99252.16;5092213;28;826;-62
2023/06/13 02:01:22;;;;;;;;;;;;;;;15.76;100.00;99238.03;5092151;28;1905;-61
2023/06/13 02:03:49;;;;;;;;;;;;;;;15.68;100.00;99231.09;5092017;28;870;-62
2023/06/13 02:09:18;;;;;;;;;;;;;;;15.56;100.00;99226.38;5091858;28;692;-64
2023/06/13 02:11:45;;;;;;;;;;;;;;;15.51;100.00;99233.28;5091710;28;838;-62
2023/06/13 02:14:12;;;;;;;;;;;;;;;15.46;100.00;99228.28;5091525;28;882;-63
2023/06/13 02:16:39;;;;;;;;;;;;;;;15.43;100.00;99226.41;5073687;28;890;-62
2023/06/13 02:19:07;;;;;;;;;;;;;;;15.39;100.00;99234.09;5091532;28;890;-65
2023/06/13 02:21:32;;;;;;;;;;;;;;;15.36;100.00;99235.00;5091931;28;1960;-64
2023/06/13 02:23:59;;;;;;;;;;;;;;;15.36;100.00;99237.78;5091576;28;818;-61
2023/06/13 02:26:28;;;;;;;;;;;;;;;15.36;100.00;99235.75;5091649;28;810;-61
2023/06/13 02:28:57;;;;;;;;;;;;;;;15.35;100.00;99242.56;5091848;28;898;-60
2023/06/13 02:31:24;;;;;;;;;;;;;;;15.35;100.00;99241.81;5091914;28;886;-61
2023/06/13 02:33:51;;;;;;;;;;;;;;;15.39;100.00;99240.44;5091422;28;1496;-63
2023/06/13 02:36:17;;;;;;;;;;;;;;;15.39;100.00;99242.47;5091613;28;906;-61
2023/06/13 02:38:44;;;;;;;;;;;;;;;15.39;100.00;99248.81;5091640;28;924;-62
2023/06/13 02:41:11;;;;;;;;;;;;;;;15.41;100.00;99240.00;5091772;28;849;-61
2023/06/13 02:43:38;;;;;;;;;;;;;;;15.38;100.00;99240.88;5091707;28;1906;-65
2023/06/13 02:46:06;;;;;;;;;;;;;;;15.39;100.00;99243.25;5092004;28;810;-62
2023/06/13 02:48:33;;;;;;;;;;;;;;;15.38;100.00;99246.47;5091736;28;854;-61
2023/06/13 02:51:02;;;;;;;;;;;;;;;15.38;100.00;99252.81;5091466;28;877;-65
2023/06/13 02:53:29;;;;;;;;;;;;;;;15.38;100.00;99247.22;5073064;28;888;-61
2023/06/13 02:55:56;;;;;;;;;;;;;;;15.37;100.00;99256.81;5091309;28;830;-61
2023/06/13 02:58:23;;;;;;;;;;;;;;;15.36;100.00;99251.69;5091409;28;870;-62
2023/06/13 03:00:50;;;;;;;;;;;;;;;15.36;100.00;99246.91;5091246;28;850;-63
2023/06/13 03:03:18;;;;;;;;;;;;;;;15.37;100.00;99247.72;5091153;28;1881;-61
2023/06/13 03:05:47;;;;;;;;;;;;;;;15.35;100.00;99247.38;5094553;28;920;-61
2023/06/13 03:08:18;;;;;;;;;;;;;;;15.37;100.00;99245.69;5095175;28;885;-61
2023/06/13 03:10:47;;;;;;;;;;;;;;;15.39;100.00;99239.69;5095272;28;885;-62
2023/06/13 03:13:16;;;;;;;;;;;;;;;15.39;100.00;99240.44;5095092;28;861;-61
2023/06/13 03:15:45;;;;;;;;;;;;;;;15.39;100.00;99236.91;5094964;28;794;-62
2023/06/13 03:18:12;;;;;;;;;;;;;;;15.38;100.00;99244.44;5095033;28;822;-62
2023/06/13 03:20:45;;;;;;;;;;;;;;;15.38;100.00;99244.44;5095074;28;787;-62
2023/06/13 03:23:12;;;;;;;;;;;;;;;15.39;100.00;99246.03;5094855;28;1889;-61
2023/06/13 03:25:40;;;;;;;;;;;;;;;15.43;100.00;99243.13;5094807;28;791;-62
2023/06/13 03:28:07;;;;;;;;;;;;;;;15.44;100.00;99253.78;5094795;28;846;-62
2023/06/13 03:30:33;;;;;;;;;;;;;;;15.44;100.00;99244.66;5094707;28;905;-61
2023/06/13 03:33:00;;;;;;;;;;;;;;;15.49;100.00;99258.00;5076368;28;1289;-62
2023/06/13 03:35:26;;;;;;;;;;;;;;;15.59;100.00;99261.69;5094854;28;818;-62
2023/06/13 03:37:53;;;;;;;;;;;;;;;15.63;100.00;99270.69;5094890;28;869;-61
2023/06/13 03:40:20;;;;;;;;;;;;;;;15.66;100.00;99267.78;5095195;28;806;-62
2023/06/13 03:42:47;;;;;;;;;;;;;;;15.63;100.00;99265.13;5094730;28;1905;-63
2023/06/13 03:45:15;;;;;;;;;;;;;;;15.65;100.00;99265.44;5094989;28;833;-64
2023/06/13 03:47:42;;;;;;;;;;;;;;;15.67;100.00;99268.56;5094636;28;826;-63
2023/06/13 03:50:09;;;;;;;;;;;;;;;15.71;100.00;99269.22;5094623;28;794;-62
2023/06/13 03:52:35;;;;;;;;;;;;;;;15.78;100.00;99271.00;5094484;28;799;-62
2023/06/13 03:55:02;;;;;;;;;;;;;;;15.84;100.00;99278.34;5094639;28;790;-62
2023/06/13 03:57:31;;;;;;;;;;;;;;;15.86;100.00;99286.25;5094400;28;926;-61
2023/06/13 03:59:58;;;;;;;;;;;;;;;15.98;100.00;99290.22;5094168;28;799;-62
2023/06/13 04:02:25;;;;;;;;;;;;;;;16.18;100.00;99295.50;5094131;28;1949;-63
2023/06/13 04:04:52;;;;;;;;;;;;;;;16.39;100.00;99296.75;5094086;28;822;-63
2023/06/13 04:07:21;;;;;;;;;;;;;;;16.49;100.00;99293.56;5094116;28;838;-63
2023/06/13 04:09:48;;;;;;;;;;;;;;;16.49;100.00;99295.53;5094036;28;880;-62
2023/06/13 04:12:15;;;;;;;;;;;;;;;16.49;100.00;99301.13;5093976;28;881;-62
2023/06/13 04:14:42;;;;;;;;;;;;;;;16.58;100.00;99300.41;5093367;28;897;-62
2023/06/13 04:17:09;;;;;;;;;;;;;;;16.60;100.00;99306.28;5093933;28;822;-64
2023/06/13 04:19:37;;;;;;;;;;;;;;;16.65;100.00;99300.91;5093632;28;846;-61
2023/06/13 04:22:05;;;;;;;;;;;;;;;16.76;100.00;99306.09;5093983;28;1885;-62
2023/06/13 04:24:32;;;;;;;;;;;;;;;16.91;100.00;99309.13;5093609;28;928;-62
2023/06/13 04:27:03;;;;;;;;;;;;;;;17.00;100.00;99308.41;5093812;28;893;-61
2023/06/13 04:29:30;;;;;;;;;;;;;;;17.00;100.00;99309.19;5093643;28;845;-62
2023/06/13 04:31:58;;;;;;;;;;;;;;;17.06;100.00;99301.75;5093646;28;822;-63
2023/06/13 04:34:24;;;;;;;;;;;;;;;17.08;100.00;99301.31;5093295;28;1349;-63
2023/06/13 04:36:55;;;;;;;;;;;;;;;16.96;100.00;99305.75;5093508;28;853;-63
2023/06/13 04:39:24;;;;;;;;;;;;;;;16.81;100.00;99308.31;5093333;28;921;-63
2023/06/13 04:41:55;;;;;;;;;;;;;;;16.73;100.00;99309.81;5093265;28;1981;-61
2023/06/13 04:44:25;;;;;;;;;;;;;;;16.74;100.00;99309.31;5093724;28;770;-62
2023/06/13 04:46:57;;;;;;;;;;;;;;;16.60;100.00;99307.09;5093124;28;968;-61
2023/06/13 04:49:27;;;;;;;;;;;;;;;16.53;100.00;99315.72;5093152;28;822;-61
2023/06/13 04:51:58;;;;;;;;;;;;;;;16.44;100.00;99308.06;5093063;28;864;-62
2023/06/13 04:54:25;;;;;;;;;;;;;;;16.41;100.00;99316.56;5093064;28;838;-62
2023/06/13 04:56:52;;;;;;;;;;;;;;;16.47;100.00;99311.94;5092951;28;897;-62
2023/06/13 04:59:19;;;;;;;;;;;;;;;16.57;100.00;99310.00;5093103;28;893;-61
2023/06/13 05:01:47;;;;;;;;;;;;;;;16.60;100.00;99320.25;5092941;28;1894;-60
2023/06/13 05:04:14;;;;;;;;;;;;;;;16.67;100.00;99320.78;5092929;28;826;-62
2023/06/13 05:06:42;;;;;;;;;;;;;;;16.78;100.00;99314.78;5092917;28;806;-61
2023/06/13 05:09:08;;;;;;;;;;;;;;;16.87;100.00;99326.00;5092830;28;833;-61
2023/06/13 05:11:35;;;;;;;;;;;;;;;16.93;100.00;99329.78;5092725;28;826;-62
2023/06/13 05:14:02;;;;;;;;;;;;;;;17.02;100.00;99331.81;5092692;28;1014;-61
2023/06/13 05:16:29;;;;;;;;;;;;;;;17.16;100.00;99333.31;5092759;28;916;-62
2023/06/13 05:19:00;;;;;;;;;;;;;;;17.33;100.00;99331.03;5074430;28;1180;-61
2023/06/13 05:21:31;;;;;;;;;;;;;;;17.50;100.00;99334.34;5092502;28;1956;-61
2023/06/13 05:24:00;;;;;;;;;;;;;;;17.54;100.00;99338.56;5092636;28;861;-62
2023/06/13 05:26:28;;;;;;;;;;;;;;;17.63;100.00;99337.03;5092008;28;873;-61
2023/06/13 05:28:56;;;;;;;;;;;;;;;17.75;100.00;99350.88;5092354;28;823;-61
2023/06/13 05:31:23;;;;;;;;;;;;;;;17.91;100.00;99352.63;5092480;28;841;-63
2023/06/13 05:33:50;;;;;;;;;;;;;;;18.08;100.00;99361.50;5092111;28;1221;-62
2023/06/13 05:36:17;;;;;;;;;;;;;;;18.36;100.00;99350.31;5092314;28;798;-62
2023/06/13 05:38:43;;;;;;;;;;;;;;;18.57;100.00;99357.75;5092478;28;881;-62
2023/06/13 05:41:10;;;;;;;;;;;;;;;18.62;100.00;99347.19;5092202;28;944;-61
2023/06/13 05:43:37;;;;;;;;;;;;;;;18.56;100.00;99359.00;5073963;28;1918;-61
2023/06/13 05:46:04;;;;;;;;;;;;;;;18.75;100.00;99370.97;5092070;28;845;-61
2023/06/13 05:48:31;;;;;;;;;;;;;;;18.70;100.00;99363.19;5092153;28;909;-61
2023/06/13 05:50:58;;;;;;;;;;;;;;;18.82;100.00;99369.09;5092012;28;866;-63
2023/06/13 05:53:25;;;;;;;;;;;;;;;18.89;100.00;99363.19;5092083;28;866;-62
2023/06/13 05:55:52;;;;;;;;;;;;;;;19.03;100.00;99365.28;5092042;28;837;-62
2023/06/13 05:58:18;;;;;;;;;;;;;;;19.29;100.00;99370.53;5092176;28;858;-63
2023/06/13 06:00:45;;;;;;;;;;;;;;;19.49;100.00;99365.13;5091966;28;795;-62
2023/06/13 06:03:12;;;;;;;;;;;;;;;19.97;100.00;99370.81;5091715;28;1893;-62
2023/06/13 06:05:38;;;;;;;;;;;;;;;20.59;100.00;99366.44;5091918;28;799;-62
2023/06/13 06:08:05;;;;;;;;;;;;;;;21.34;100.00;99367.19;5091832;28;859;-63
2023/06/13 06:10:32;;;;;;;;;;;;;;;21.68;100.00;99367.72;5091877;28;830;-62
2023/06/13 06:12:58;;;;;;;;;;;;;;;22.00;100.00;99370.72;5091841;28;851;-62
2023/06/13 06:15:25;;;;;;;;;;;;;;;22.24;100.00;99370.50;5091706;28;858;-62
2023/06/13 06:17:52;;;;;;;;;;;;;;;23.23;100.00;99364.84;5091799;28;892;-63
2023/06/13 06:20:19;;;;;;;;;;;;;;;24.24;97.13;99354.16;5091429;28;949;-63
2023/06/13 06:22:45;;;;;;;;;;;;;;;24.19;96.82;99357.72;5091649;28;1965;-65
2023/06/13 06:25:19;;;;;;;;;;;;;;;25.17;92.92;99357.38;5091699;28;814;-62
2023/06/13 06:27:46;;;;;;;;;;;;;;;25.68;85.73;99360.94;5091632;28;798;-63
2023/06/13 06:30:13;;;;;;;;;;;;;;;26.26;83.10;99354.59;5091503;28;831;-62
2023/06/13 06:32:40;;;;;;;;;;;;;;;27.13;79.58;99357.91;5091578;28;791;-62
2023/06/13 06:35:07;;;;;;;;;;;;;;;27.36;71.50;99350.00;5091235;28;1286;-63
2023/06/13 06:37:34;;;;;;;;;;;;;;;27.18;69.24;99364.81;5091398;28;858;-62
2023/06/13 06:40:00;;;;;;;;;;;;;;;27.65;67.18;99364.66;5095615;28;885;-63
2023/06/13 06:42:27;;;;;;;;;;;;;;;28.47;63.33;99351.31;5095724;28;1918;-63
2023/06/13 06:44:54;;;;;;;;;;;;;;;28.16;61.60;99350.66;5095682;28;893;-63
2023/06/13 06:47:21;;;;;;;;;;;;;;;27.60;62.52;99354.91;5095560;28;874;-63
2023/06/13 06:49:48;;;;;;;;;;;;;;;28.01;62.78;99344.66;5095490;28;844;-62
2023/06/13 06:52:15;;;;;;;;;;;;;;;27.69;62.70;99350.94;5111271;28;892;-62
2023/06/13 06:54:41;;;;;;;;;;;;;;;27.46;63.64;99351.19;5095496;28;829;-61
2023/06/13 06:57:07;;;;;;;;;;;;;;;27.54;62.96;99350.59;5095323;28;826;-63
2023/06/13 06:59:34;;;;;;;;;;;;;;;27.41;62.64;99348.41;5095306;28;822;-63
2023/06/13 07:02:01;;;;;;;;;;;;;;;27.59;63.16;99346.91;5077182;28;1955;-63
2023/06/13 07:04:28;;;;;;;;;;;;;;;27.80;62.12;99342.31;5095333;28;890;-63
2023/06/13 07:06:55;;;;;;;;;;;;;;;28.06;61.89;99341.00;5095243;28;818;-62
2023/06/13 07:09:21;;;;;;;;;;;;;;;27.98;61.53;99340.06;5095216;28;814;-61
2023/06/13 07:11:48;;;;;;;;;;;;;;;27.51;62.39;99341.06;5095175;28;994;-61
2023/06/13 07:14:15;;;;;;;;;;;;;;;27.40;62.76;99344.03;5094939;28;866;-62
2023/06/13 07:16:42;;;;;;;;;;;;;;;27.56;62.32;99339.47;5095124;28;799;-61
2023/06/13 07:19:09;;;;;;;;;;;;;;;27.88;62.44;99334.75;5094802;28;874;-62
2023/06/13 07:21:36;;;;;;;;;;;;;;;28.25;61.93;99336.09;5094891;28;1964;-64
2023/06/13 07:24:02;;;;;;;;;;;;;;;28.59;59.60;99338.50;5076716;28;890;-64
2023/06/13 07:26:29;;;;;;;;;;;;;;;28.40;59.29;99332.00;5094855;28;837;-63
2023/06/13 07:28:56;;;;;;;;;;;;;;;28.63;58.16;99336.09;5094784;28;810;-63
2023/06/13 07:31:23;;;;;;;;;;;;;;;29.08;57.93;99331.75;5094782;28;885;-62
2023/06/13 07:33:49;;;;;;;;;;;;;;;28.70;57.15;99331.88;5076308;28;2521;-63
2023/06/13 07:36:16;;;;;;;;;;;;;;;28.76;57.88;99334.59;5094719;28;829;-64
2023/06/13 07:38:43;;;;;;;;;;;;;;;28.57;57.37;99335.44;5094893;28;893;-62
2023/06/13 07:41:10;;;;;;;;;;;;;;;27.90;59.17;99331.38;5094580;28;802;-62
2023/06/13 07:43:37;;;;;;;;;;;;;;;28.00;56.46;99323.25;5094532;28;1972;-62
2023/06/13 07:46:06;;;;;;;;;;;;;;;28.32;56.11;99331.88;5094507;28;845;-63
2023/06/13 07:48:32;;;;;;;;;;;;;;;28.26;55.66;99331.94;5094371;28;939;-63
2023/06/13 07:50:59;;;;;;;;;;;;;;;28.00;55.40;99331.78;5093705;28;811;-62
2023/06/13 07:53:25;;;;;;;;;;;;;;;27.97;56.49;99330.75;5094177;28;916;-64
2023/06/13 07:55:54;;;;;;;;;;;;;;;28.32;54.81;99333.94;5094260;28;929;-64
2023/06/13 07:58:20;;;;;;;;;;;;;;;28.55;54.81;99326.66;5094295;28;806;-65
2023/06/13 08:00:46;;;;;;;;;;;;;;;28.76;54.25;99328.91;5094038;28;897;-64
2023/06/13 08:03:13;;;;;;;;;;;;;;;28.44;54.50;99327.56;5094162;28;1870;-64
2023/06/13 08:08:47;;;;;;;;;;;;;;;28.01;55.34;99334.06;5094066;28;628;-64
2023/06/13 08:11:14;;;;;;;;;;;;;;;27.63;56.27;99325.47;5094344;28;889;-64
2023/06/13 08:13:41;;;;;;;;;;;;;;;27.59;56.07;99333.50;5094268;28;822;-64
2023/06/13 08:16:07;;;;;;;;;;;;;;;27.47;56.51;99334.94;5094152;28;806;-65
2023/06/13 08:18:34;;;;;;;;;;;;;;;27.42;56.71;99336.53;5094388;28;833;-62
2023/06/13 08:21:01;;;;;;;;;;;;;;;27.51;57.38;99341.06;5094359;28;1038;-65
2023/06/13 08:23:27;;;;;;;;;;;;;;;27.67;55.88;99325.94;5093921;28;1894;-67
2023/06/13 08:25:55;;;;;;;;;;;;;;;27.50;56.50;99319.66;5093634;28;835;-65
2023/06/13 08:28:22;;;;;;;;;;;;;;;27.83;55.75;99315.69;5094050;28;803;-63
2023/06/13 08:30:49;;;;;;;;;;;;;;;27.67;55.44;99319.47;5094053;28;818;-64
2023/06/13 08:33:16;;;;;;;;;;;;;;;27.77;55.88;99311.38;5094106;28;1240;-63
2023/06/13 08:35:43;;;;;;;;;;;;;;;28.06;54.90;99313.34;5093605;28;817;-63
2023/06/13 08:38:11;;;;;;;;;;;;;;;28.14;54.04;99307.06;5094472;28;781;-62
2023/06/13 08:40:39;;;;;;;;;;;;;;;27.67;55.96;99313.81;5093697;28;870;-64
2023/06/13 08:43:05;;;;;;;;;;;;;;;27.40;57.26;99310.75;5093616;28;1975;-65
2023/06/13 08:45:33;;;;;;;;;;;;;;;27.96;55.31;99302.91;5093688;28;798;-63
2023/06/13 08:47:59;;;;;;;;;;;;;;;27.85;55.52;99300.97;5093432;28;870;-63
2023/06/13 08:50:26;;;;;;;;;;;;;;;28.08;54.23;99307.16;5093485;28;786;-62
2023/06/13 08:52:55;;;;;;;;;;;;;;;28.03;53.53;99303.06;5093405;28;818;-62
2023/06/13 08:55:25;;;;;;;;;;;;;;;28.03;54.33;99300.22;5093333;28;885;-64
2023/06/13 08:57:52;;;;;;;;;;;;;;;28.51;53.46;99297.78;5093064;28;881;-64
2023/06/13 09:00:19;;;;;;;;;;;;;;;28.57;52.25;99292.00;5093149;28;837;-62
2023/06/13 09:02:46;;;;;;;;;;;;;;;28.11;54.02;99300.38;5091734;28;1886;-64
2023/06/13 09:05:16;;;;;;;;;;;;;;;27.98;53.25;99303.16;5092937;28;810;-63
2023/06/13 09:07:43;;;;;;;;;;;;;;;28.15;52.45;99288.72;5092768;28;791;-63
2023/06/13 09:10:11;;;;;;;;;;;;;;;28.14;52.85;99302.13;5092797;28;897;-64
2023/06/13 09:12:42;;;;;;;;;;;;;;;28.14;53.28;99287.94;5092975;28;802;-63
2023/06/13 09:15:09;;;;;;;;;;;;;;;28.28;53.55;99292.38;5092814;28;803;-64
2023/06/13 09:17:36;;;;;;;;;;;;;;;28.78;53.39;99292.94;5092394;28;1007;-64
2023/06/13 09:20:06;;;;;;;;;;;;;;;28.74;50.78;99288.88;5092656;28;826;-63
2023/06/13 09:22:36;;;;;;;;;;;;;;;28.11;50.94;99283.34;5092777;28;1898;-62
2023/06/13 09:25:04;;;;;;;;;;;;;;;27.42;52.67;99293.97;5092342;28;918;-64
2023/06/13 09:27:31;;;;;;;;;;;;;;;27.72;53.60;99278.91;5093179;28;802;-62
2023/06/13 09:30:01;;;;;;;;;;;;;;;27.88;51.35;99286.47;5092538;28;842;-63
2023/06/13 09:32:27;;;;;;;;;;;;;;;28.05;50.47;99283.41;5092558;28;842;-63
2023/06/13 09:34:54;;;;;;;;;;;;;;;27.78;50.77;99281.66;5092308;28;1437;-64
2023/06/13 09:37:24;;;;;;;;;;;;;;;27.77;50.76;99280.16;5092628;28;901;-64
2023/06/13 09:39:51;;;;;;;;;;;;;;;27.57;49.78;99284.22;5092258;28;823;-63
2023/06/13 10:10:43;;;;;;;;;;;;;;;26.30;51.12;99275.00;5840696;22;1690;-64
2023/06/13 10:13:13;;;;;;;;;;;;;;;26.47;51.54;99267.16;4974702;28;1416;-63
2023/06/13 10:15:47;;;;;;;;;;;;;;;26.65;51.13;99260.09;4992469;28;861;-63
2023/06/13 10:18:16;;;;;;;;;;;;;;;26.88;50.84;99255.78;4992296;28;862;-66
2023/06/13 10:20:46;;;;;;;;;;;;;;;26.92;50.36;99258.31;4992360;28;819;-64
2023/06/13 10:23:15;;;;;;;;;;;;;;;27.06;50.26;99250.72;4992144;28;1977;-64
2023/06/13 10:25:45;;;;;;;;;;;;;;;27.62;49.67;99252.19;4992875;28;982;-65
2023/06/13 10:28:27;;;;;;;;;;;;;;;27.85;49.14;99250.63;4992452;28;810;-65
2023/06/13 10:31:05;;;;;;;;;;;;;;;28.04;47.81;99249.88;4974750;28;1289;-64
2023/06/13 10:33:41;;;;;;;;;;;;;;;28.27;47.16;99248.25;4992194;28;858;-64
2023/06/13 10:36:31;;;;;;;;;;;;;;;28.10;46.17;99245.66;4992150;28;878;-64
2023/06/13 10:39:10;;;;;;;;;;;;;;;27.92;47.17;99235.06;4992154;28;897;-63
2023/06/13 10:41:40;;;;;;;;;;;;;;;28.08;46.57;99233.31;4992077;28;917;-65
2023/06/13 10:44:14;;;;;;;;;;;;;;;28.71;45.67;99233.88;4992090;28;870;-65
2023/06/13 10:46:41;;;;;;;;;;;;;;;28.80;44.14;99227.78;4992031;28;862;-64
2023/06/13 10:49:13;;;;;;;;;;;;;;;28.70;43.74;99230.28;4991998;28;811;-65
2023/06/13 10:51:41;;;;;;;;;;;;;;;28.91;42.56;99236.13;4992128;28;905;-64
2023/06/13 10:54:09;;;;;;;;;;;;;;;29.04;41.56;99235.38;4991994;28;882;-65
2023/06/13 10:56:39;;;;;;;;;;;;;;;29.55;40.37;99230.78;4991955;28;839;-64
2023/06/13 10:59:06;;;;;;;;;;;;;;;30.13;39.03;99227.75;4991836;28;939;-65
2023/06/13 11:01:34;;;;;;;;;;;;;;;30.70;37.30;99232.91;4991928;28;966;-63
2023/06/13 11:04:14;;;;;;;;;;;;;;;30.74;36.11;99223.97;4991827;28;1894;-63
2023/06/13 11:06:42;;;;;;;;;;;;;;;30.97;36.24;99226.28;4992157;28;1170;-65
2023/06/13 11:09:25;;;;;;;;;;;;;;;31.23;35.86;99226.06;4992076;28;795;-65
2023/06/13 11:11:56;;;;;;;;;;;;;;;31.59;35.00;99228.19;4991771;28;1210;-65
2023/06/13 11:14:32;;;;;;;;;;;;;;;31.62;34.61;99226.31;4992021;28;913;-64
2023/06/13 11:16:58;;;;;;;;;;;;;;;31.21;35.48;99214.44;4991772;28;831;-64
2023/06/13 11:19:29;;;;;;;;;;;;;;;31.06;36.03;99223.66;4974381;28;1685;-64
2023/06/13 11:21:59;;;;;;;;;;;;;;;31.47;35.24;99215.56;4991605;28;1910;-64
2023/06/13 11:24:27;;;;;;;;;;;;;;;31.61;34.27;99219.84;4991707;28;834;-64
2023/06/13 11:26:57;;;;;;;;;;;;;;;30.77;35.31;99217.16;4994988;28;857;-64
2023/06/13 11:29:23;;;;;;;;;;;;;;;29.85;36.06;99207.66;4995298;28;866;-64
2023/06/13 11:31:53;;;;;;;;;;;;;;;30.10;36.71;99211.75;4995477;28;921;-65
2023/06/13 11:34:40;;;;;;;;;;;;;;;31.04;35.53;99209.19;4995504;28;834;-63
2023/06/13 11:37:16;;;;;;;;;;;;;;;31.26;35.99;99209.91;4981383;28;1277;-66
2023/06/13 11:39:46;;;;;;;;;;;;;;;30.48;36.06;99216.34;4994962;28;795;-64
2023/06/13 11:42:14;;;;;;;;;;;;;;;30.86;36.12;99210.97;4995075;28;1886;-63
2023/06/13 11:44:42;;;;;;;;;;;;;;;31.52;34.95;99212.56;4995008;28;827;-64
2023/06/13 11:47:11;;;;;;;;;;;;;;;32.01;34.42;99195.84;4995052;28;818;-64
2023/06/13 11:49:38;;;;;;;;;;;;;;;32.45;33.53;99198.56;4994757;28;1388;-62
2023/06/13 11:52:15;;;;;;;;;;;;;;;32.44;32.85;99194.19;4994921;28;579;-65
2023/06/13 11:54:47;;;;;;;;;;;;;;;33.58;32.37;99191.75;4994858;28;901;-65
2023/06/13 11:57:14;;;;;;;;;;;;;;;33.83;31.60;99189.75;4994834;28;819;-64
2023/06/13 11:59:41;;;;;;;;;;;;;;;34.22;31.12;99198.16;4994708;28;934;-65
2023/06/13 12:02:08;;;;;;;;;;;;;;;33.59;30.88;99202.66;4994615;28;1951;-65
2023/06/13 12:04:35;;;;;;;;;;;;;;;32.85;31.85;99198.78;4994747;28;803;-65
2023/06/13 12:07:06;;;;;;;;;;;;;;;31.91;33.55;99193.47;4994612;28;827;-64
2023/06/13 12:09:32;;;;;;;;;;;;;;;30.51;35.57;99198.09;4994571;28;873;-64
2023/06/13 12:11:59;;;;;;;;;;;;;;;30.10;35.78;99194.66;4994539;28;1351;-65
2023/06/13 12:14:28;;;;;;;;;;;;;;;29.00;37.29;99185.81;4994742;28;815;-65
2023/06/13 12:16:55;;;;;;;;;;;;;;;28.62;38.25;99183.91;4994385;28;890;-63
2023/06/13 12:19:22;;;;;;;;;;;;;;;28.39;39.10;99177.03;4994393;28;795;-66
2023/06/13 12:21:51;;;;;;;;;;;;;;;28.24;39.41;99177.53;4994330;28;1911;-64
2023/06/13 12:24:19;;;;;;;;;;;;;;;27.62;40.33;99182.00;4994263;28;830;-64
2023/06/13 12:26:47;;;;;;;;;;;;;;;27.01;41.67;99174.97;4994300;28;854;-64
2023/06/13 12:29:16;;;;;;;;;;;;;;;28.65;40.09;99177.09;4994150;28;893;-65
2023/06/13 12:31:44;;;;;;;;;;;;;;;30.55;37.32;99172.84;4994931;28;807;-66
2023/06/13 12:34:16;;;;;;;;;;;;;;;30.10;36.75;99171.84;4994349;28;834;-64
2023/06/13 12:36:44;;;;;;;;;;;;;;;28.45;38.83;99172.03;4993906;28;807;-65
2023/06/13 12:39:14;;;;;;;;;;;;;;;27.60;40.28;99169.66;4993896;28;831;-64
2023/06/13 12:41:46;;;;;;;;;;;;;;;27.36;41.47;99159.13;4994175;28;881;-65
2023/06/13 12:44:13;;;;;;;;;;;;;;;29.49;38.37;99168.31;4993979;28;827;-64
2023/06/13 12:46:39;;;;;;;;;;;;;;;31.05;35.69;99165.09;4993874;28;902;-66
2023/06/13 12:49:14;;;;;;;;;;;;;;;32.42;33.35;99163.28;4993813;28;922;-65
2023/06/13 12:51:45;;;;;;;;;;;;;;;33.10;32.31;99167.47;4994134;28;811;-65
2023/06/13 12:54:12;;;;;;;;;;;;;;;32.79;31.98;99165.97;4993736;28;835;-66
2023/06/13 12:59:42;;;;;;;;;;;;;;;32.59;32.26;99173.44;4993713;28;618;-65
2023/06/13 13:02:10;;;;;;;;;;;;;;;32.95;31.69;99167.47;4993703;28;1890;-64
2023/06/13 13:04:37;;;;;;;;;;;;;;;33.27;31.53;99163.25;4993673;28;858;-65
2023/06/13 13:07:05;;;;;;;;;;;;;;;33.37;31.24;99161.28;4994556;28;830;-65
2023/06/13 13:09:32;;;;;;;;;;;;;;;33.09;31.75;99163.06;4993590;28;827;-64
2023/06/13 13:11:59;;;;;;;;;;;;;;;32.21;32.18;99165.56;4993824;28;1178;-66
2023/06/13 13:14:26;;;;;;;;;;;;;;;31.82;32.85;99164.69;4993609;28;854;-66
2023/06/13 13:16:54;;;;;;;;;;;;;;;31.20;33.00;99169.34;4993647;28;855;-65
2023/06/13 13:19:21;;;;;;;;;;;;;;;31.07;33.77;99168.13;4993389;28;859;-64
2023/06/13 13:21:48;;;;;;;;;;;;;;;30.87;34.02;99160.38;4993376;28;1965;-64
2023/06/13 13:24:16;;;;;;;;;;;;;;;30.69;34.63;99159.28;4993275;28;918;-64
2023/06/13 13:26:45;;;;;;;;;;;;;;;30.47;35.41;99169.19;4975873;28;1194;-65
2023/06/13 13:29:11;;;;;;;;;;;;;;;30.47;35.03;99157.78;4993095;28;807;-64
2023/06/13 13:31:38;;;;;;;;;;;;;;;30.52;35.26;99160.50;4993442;28;847;-63
2023/06/13 13:34:05;;;;;;;;;;;;;;;30.35;35.07;99162.25;4993014;28;855;-64
2023/06/13 13:36:33;;;;;;;;;;;;;;;30.38;35.15;99161.13;4993037;28;910;-65
2023/06/13 13:39:02;;;;;;;;;;;;;;;30.68;34.42;99157.75;4992852;28;807;-64
2023/06/13 13:41:32;;;;;;;;;;;;;;;30.73;34.67;99160.47;4975420;28;1194;-65
2023/06/13 13:44:02;;;;;;;;;;;;;;;31.61;33.41;99154.16;4992772;28;1977;-65